FW2862 Weather Reports


Display with metric or nautical units.
time (UTC)temp
F
wind
direction
speed
MPH
gust
MPH
rain 1hr
in
rain 24hr
in
rain mn
in
humidity
%
barometer
mb
20191020223844 54 336 0.0 3.0 0.02 1.14 1.14 96 1011.9
20191020223344 54 336 0.0 3.0 0.02 1.14 1.14 96 1011.9
20191020222844 54 319 0.0 2.0 0.02 1.14 1.14 96 1011.8
20191020222345 54 319 0.0 5.0 0.03 1.14 1.14 96 1011.8
20191020221838 54 302 0.0 5.0 0.03 1.14 1.14 96 1011.8
20191020221338 54 341 0.0 1.0 0.04 1.14 1.14 96 1011.8
20191020220838 54 341 0.0 2.0 0.05 1.14 1.14 96 1011.7
20191020220338 54 341 0.0 2.0 0.05 1.13 1.13 96 1011.8
20191020215838 54 341 0.0 3.0 0.05 1.13 1.13 96 1011.6
20191020215338 54 342 1.0 3.0 0.07 1.13 1.13 96 1011.7
20191020214839 54 5 0.0 4.0 0.08 1.13 1.13 96 1011.7
20191020214336 54 252 0.0 4.0 0.09 1.13 1.13 96 1011.7
20191020213837 54 350 0.0 3.0 0.09 1.12 1.12 96 1011.7
20191020213331 54 0 1.0 3.0 0.10 1.12 1.12 96 1011.7
20191020212827 54 0 1.0 3.0 0.12 1.12 1.12 96 1011.6
20191020212328 54 348 1.0 3.0 0.12 1.11 1.11 96 1011.6
20191020211829 54 329 1.0 3.0 0.15 1.11 1.11 96 1011.6
20191020211329 54 336 0.0 3.0 0.15 1.10 1.10 96 1011.6
20191020210828 54 327 0.0 2.0 0.15 1.09 1.10 96 1011.6
20191020210327 54 312 0.0 2.0 0.16 1.08 1.09 96 1011.6
20191020205826 54 306 0.0 2.0 0.17 1.08 1.08 96 1011.5
20191020205321 54 309 0.0 3.0 0.16 1.06 1.06 96 1011.5
20191020204819 54 350 0.0 3.0 0.16 1.05 1.06 96 1011.5
20191020204319 54 325 0.0 3.0 0.15 1.04 1.04 96 1011.4
20191020203818 54 258 0.0 4.0 0.15 1.03 1.03 96 1011.4
20191020203318 54 320 0.0 4.0 0.14 1.02 1.02 96 1011.3
20191020202821 54 323 0.0 2.0 0.12 1.00 1.00 96 1011.3
20191020202318 54 315 0.0 2.0 0.11 0.99 0.99 96 1011.3
20191020201817 54 347 0.0 3.0 0.08 0.96 0.97 96 1011.2
20191020201316 54 348 0.0 3.0 0.07 0.95 0.95 96 1011.2
20191020200817 54 319 1.0 3.0 0.07 0.94 0.94 96 1011.3
20191020200317 54 323 1.0 3.0 0.05 0.92 0.92 96 1011.3
20191020195817 54 335 0.0 3.0 0.04 0.91 0.92 96 1011.2
20191020195315 54 355 0.0 3.0 0.04 0.90 0.90 96 1011.2
20191020194817 54 326 0.0 3.0 0.03 0.89 0.90 96 1011.1
20191020194315 54 304 0.0 2.0 0.04 0.89 0.89 96 1011.0
20191020193816 54 297 0.0 5.0 0.05 0.88 0.88 96 1010.9
20191020193313 54 348 0.0 5.0 0.06 0.88 0.88 96 1010.8
20191020192813 54 323 0.0 3.0 0.08 0.88 0.88 96 1010.7
20191020192313 54 279 0.0 2.0 0.09 0.88 0.88 96 1010.7
20191020191810 54 279 0.0 2.0 0.11 0.88 0.88 96 1010.7
20191020191310 54 280 0.0 2.0 0.12 0.88 0.88 96 1010.8
20191020190809 54 280 0.0 2.0 0.15 0.87 0.87 96 1010.8
20191020190310 54 278 0.0 2.0 0.19 0.87 0.87 96 1010.8
20191020185808 54 278 0.0 2.0 0.21 0.87 0.87 96 1010.8
20191020185309 54 277 0.0 3.0 0.21 0.86 0.86 96 1010.8
20191020184809 54 277 1.0 4.0 0.23 0.86 0.86 96 1010.9
20191020184308 54 296 1.0 4.0 0.23 0.85 0.85 96 1011.0
20191020183808 54 340 0.0 3.0 0.22 0.83 0.83 96 1010.9
20191020183309 54 339 0.0 3.0 0.21 0.82 0.82 96 1010.8
20191020182807 54 275 0.0 2.0 0.20 0.80 0.80 96 1010.9
20191020182309 54 271 0.0 3.0 0.19 0.79 0.79 96 1011.0
20191020181807 54 268 0.0 3.0 0.18 0.77 0.77 96 1011.1
20191020181309 54 274 0.0 2.0 0.18 0.76 0.76 96 1011.2
20191020181038 54 274 0.0 2.0 0.14 0.72 0.73 96 1011.3
20191020180307 54 248 0.0 3.0 0.11 0.68 0.69 96 1011.4
20191020175807 54 248 0.0 3.0 0.09 0.66 0.66 96 1011.5
20191020175308 54 223 0.0 2.0 0.08 0.65 0.65 96 1011.6
20191020174808 54 223 0.0 2.0 0.07 0.63 0.63 96 1011.6
20191020174308 54 221 0.0 1.0 0.06 0.62 0.62 96 1011.5
20191020173808 54 219 0.0 0.0 0.05 0.61 0.61 96 1011.6
20191020173306 54 219 0.0 2.0 0.06 0.61 0.61 96 1011.8
20191020172807 54 219 0.0 2.0 0.06 0.60 0.60 96 1012.0
20191020172307 54 219 0.0 3.0 0.07 0.60 0.60 96 1012.0
20191020171804 54 219 0.0 3.0 0.07 0.59 0.59 96 1012.0
20191020171303 54 217 0.0 2.0 0.06 0.58 0.58 96 1012.0
20191020170801 54 217 0.0 2.0 0.07 0.58 0.58 96 1012.2
20191020170301 54 216 0.0 1.0 0.06 0.57 0.57 96 1012.4
20191020165759 53 216 0.0 1.0 0.07 0.57 0.57 96 1012.5
20191020165257 53 216 0.0 1.0 0.07 0.57 0.57 96 1012.7
20191020164756 53 216 0.0 1.0 0.08 0.56 0.56 96 1012.8
20191020164256 53 216 0.0 1.0 0.10 0.56 0.56 96 1012.9
20191020163753 53 216 0.0 0.0 0.10 0.56 0.56 96 1012.9
20191020163251 53 216 0.0 0.0 0.10 0.55 0.55 96 1013.2
20191020162751 53 216 0.0 1.0 0.10 0.54 0.54 96 1013.2
20191020162250 53 216 0.0 1.0 0.09 0.53 0.53 96 1013.3
20191020161751 53 216 0.0 1.0 0.10 0.52 0.52 96 1013.4
20191020161248 53 216 0.0 2.0 0.11 0.52 0.52 96 1013.5
20191020160749 53 216 0.0 2.0 0.11 0.51 0.51 96 1013.5
20191020160249 53 189 0.0 1.0 0.12 0.50 0.51 96 1013.6
20191020155747 53 189 0.0 1.0 0.13 0.50 0.50 96 1013.7
20191020155247 53 189 0.0 1.0 0.13 0.49 0.49 96 1013.7
20191020154746 53 189 0.0 1.0 0.12 0.48 0.48 96 1013.8
20191020154245 53 189 0.0 1.0 0.11 0.46 0.47 95 1013.8
20191020153745 53 189 0.0 1.0 0.11 0.46 0.46 96 1013.9
20191020153255 53 189 0.0 1.0 0.11 0.45 0.45 96 1013.9
20191020152746 53 189 0.0 1.0 0.10 0.44 0.44 96 1014.0
20191020152245 53 189 0.0 0.0 0.11 0.44 0.44 96 1014.0
20191020151745 53 189 0.0 2.0 0.10 0.42 0.43 95 1014.1
20191020151244 53 189 0.0 2.0 0.11 0.41 0.41 96 1014.1
20191020150744 53 319 0.0 1.0 0.11 0.40 0.40 96 1014.1
20191020150241 53 319 0.0 1.0 0.10 0.38 0.38 96 1014.1
20191020145742 53 319 0.0 0.0 0.10 0.37 0.38 96 1014.2
20191020145241 53 319 0.0 0.0 0.10 0.36 0.37 96 1014.2
20191020144742 54 319 0.0 0.0 0.10 0.36 0.36 96 1014.2
20191020144239 53 319 0.0 0.0 0.10 0.35 0.35 96 1014.3
20191020143738 53 319 0.0 0.0 0.11 0.35 0.35 96 1014.3
20191020143240 53 319 0.0 0.0 0.10 0.34 0.34 96 1014.4
20191020142740 53 319 0.0 0.0 0.11 0.34 0.34 96 1014.5
20191020142237 53 319 0.0 0.0 0.10 0.33 0.33 96 1014.6
20191020141737 53 319 0.0 0.0 0.09 0.32 0.32 96 1014.8
20191020141237 53 319 0.0 0.0 0.07 0.30 0.30 96 1014.8
20191020140737 53 319 0.0 0.0 0.07 0.29 0.29 96 1014.7
20191020140238 53 319 0.0 0.0 0.06 0.28 0.28 95 1014.8
20191020135738 53 319 0.0 0.0 0.05 0.27 0.28 95 1014.7
20191020135237 53 319 0.0 0.0 0.04 0.26 0.26 95 1014.7
20191020134738 53 319 0.0 0.0 0.04 0.26 0.26 95 1014.6
20191020134235 53 319 0.0 0.0 0.04 0.25 0.25 95 1014.6
20191020133735 53 319 0.0 0.0 0.03 0.24 0.24 95 1014.5
20191020133234 53 319 0.0 0.0 0.03 0.24 0.24 95 1014.4
20191020132735 53 319 0.0 0.0 0.03 0.23 0.23 95 1014.4
20191020132235 53 319 0.0 0.0 0.03 0.23 0.23 95 1014.4
20191020131730 53 319 0.0 0.0 0.03 0.23 0.23 95 1014.3
20191020131227 53 319 0.0 0.0 0.04 0.23 0.23 95 1014.3
20191020130727 53 319 0.0 0.0 0.03 0.22 0.22 95 1014.4
20191020130226 53 319 0.0 0.0 0.04 0.22 0.22 95 1014.3
20191020125724 53 319 0.0 0.0 0.04 0.22 0.22 95 1014.4
20191020125223 53 319 0.0 0.0 0.05 0.22 0.22 95 1014.4
20191020124722 53 319 0.0 0.0 0.08 0.22 0.22 95 1014.3
20191020124218 53 319 0.0 0.0 0.08 0.21 0.22 95 1014.3
20191020123720 53 319 0.0 0.0 0.09 0.21 0.21 95 1014.2
20191020123218 52 319 0.0 0.0 0.09 0.21 0.21 95 1014.2
20191020122718 52 319 0.0 0.0 0.09 0.20 0.20 95 1014.1
20191020122212 52 319 0.0 0.0 0.09 0.20 0.20 95 1014.2
20191020121712 52 319 0.0 0.0 0.10 0.20 0.20 95 1014.2
20191020121206 52 319 0.0 0.0 0.09 0.19 0.20 95 1014.1
20191020120704 52 319 0.0 0.0 0.10 0.19 0.19 95 1014.1
20191020120204 52 319 0.0 0.0 0.10 0.18 0.18 95 1014.1
20191020115702 52 319 0.0 0.0 0.11 0.18 0.18 95 1014.2
20191020115201 52 319 0.0 0.0 0.10 0.16 0.17 94 1014.2
20191020114701 52 319 0.0 0.0 0.09 0.14 0.14 94 1014.2
20191020114202 52 319 0.0 0.0 0.08 0.13 0.13 95 1014.3
20191020113700 52 319 0.0 0.0 0.08 0.12 0.12 94 1014.3
20191020113159 52 319 0.0 0.0 0.09 0.12 0.12 94 1014.4
20191020112657 52 319 0.0 0.0 0.08 0.11 0.11 94 1014.3
20191020112158 52 319 0.0 0.0 0.09 0.11 0.11 94 1014.2
20191020111659 52 319 0.0 0.0 0.09 0.10 0.10 94 1014.2
20191020111157 52 319 0.0 0.0 0.09 0.10 0.10 94 1014.1
20191020110656 52 319 0.0 0.0 0.08 0.09 0.09 94 1014.2
20191020110156 51 319 0.0 0.0 0.08 0.08 0.08 94 1014.3
20191020105655 51 319 0.0 0.0 0.07 0.07 0.07 93 1014.4
20191020105155 52 319 0.0 0.0 0.06 0.06 0.06 93 1014.4
20191020104656 52 319 0.0 0.0 0.05 0.05 0.05 93 1014.4
20191020104156 52 319 0.0 0.0 0.05 0.05 0.05 93 1014.5
20191020103652 52 319 0.0 0.0 0.04 0.04 0.04 93 1014.5
20191020103154 52 319 0.0 0.0 0.03 0.03 0.03 93 1014.5
20191020102654 52 319 0.0 0.0 0.03 0.03 0.03 92 1014.6
20191020102154 52 319 0.0 0.0 0.02 0.02 0.02 92 1014.5
20191020101651 52 319 0.0 0.0 0.01 0.01 0.01 92 1014.5
20191020101151 52 319 0.0 0.0 0.01 0.01 0.01 92 1014.4
20191020100651 52 319 0.0 0.0 0.01 0.01 0.01 91 1014.3
20191020100151 53 319 0.0 0.0 0.00 0.00 0.00 91 1014.2
20191020095651 53 319 0.0 0.0 0.00 0.00 0.00 91 1014.1
20191020095150 53 319 0.0 0.0 0.00 0.00 0.00 91 1014.1
20191020094652 53 319 0.0 0.0 0.00 0.00 0.00 91 1013.9
20191020094151 53 319 0.0 0.0 0.00 0.00 0.00 91 1013.9
20191020093651 53 319 0.0 0.0 0.00 0.00 0.00 91 1013.9
20191020093150 53 319 0.0 0.0 0.00 0.00 0.00 90 1013.9
20191020092650 52 319 0.0 0.0 0.00 0.00 0.00 90 1013.8
20191020092150 52 319 0.0 0.0 0.00 0.00 0.00 90 1013.8
20191020091652 52 319 0.0 0.0 0.00 0.00 0.00 90 1013.6
20191020091152 52 319 0.0 0.0 0.00 0.00 0.00 90 1013.7
20191020090650 52 319 0.0 0.0 0.00 0.00 0.00 90 1013.6
20191020090151 52 319 0.0 0.0 0.00 0.00 0.00 90 1013.6
20191020085650 52 319 0.0 0.0 0.00 0.00 0.00 90 1013.5
20191020085144 52 319 0.0 0.0 0.00 0.00 0.00 90 1013.6
20191020084642 52 319 0.0 0.0 0.00 0.00 0.00 90 1013.5
20191020084140 52 319 0.0 0.0 0.00 0.00 0.00 90 1013.5
20191020083640 52 319 0.0 0.0 0.00 0.00 0.00 90 1013.5
20191020083142 52 319 0.0 0.0 0.00 0.00 0.00 90 1013.5
20191020082641 52 319 0.0 0.0 0.00 0.00 0.00 90 1013.6
20191020082135 52 319 0.0 0.0 0.00 0.00 0.00 90 1013.6
20191020081635 52 319 0.0 0.0 0.00 0.00 0.00 90 1013.6
20191020081134 51 319 0.0 0.0 0.00 0.00 0.00 90 1013.6
20191020080634 51 319 0.0 0.0 0.00 0.00 0.00 90 1013.7
20191020080135 51 319 0.0 0.0 0.00 0.00 0.00 90 1013.7
20191020075632 51 319 0.0 0.0 0.00 0.00 0.00 91 1013.7
20191020075132 51 319 0.0 0.0 0.00 0.00 0.00 90 1013.8
20191020074633 51 319 0.0 0.0 0.00 0.00 0.00 90 1013.8
20191020074129 51 319 0.0 0.0 0.00 0.00 0.00 90 1013.8
20191020073626 51 319 0.0 0.0 0.00 0.00 0.00 90 1013.7
20191020073125 51 319 0.0 0.0 0.00 0.00 0.00 90 1013.8
20191020072625 51 319 0.0 0.0 0.00 0.00 0.00 90 1013.9
20191020072124 51 319 0.0 0.0 0.00 0.00 0.00 90 1014.0
20191020071624 51 319 0.0 0.0 0.00 0.00 0.00 90 1014.1
20191020071125 51 319 0.0 0.0 0.00 0.00 0.00 90 1014.0
20191020070622 51 319 0.0 0.0 0.00 0.00 0.00 90 1014.0
20191020070120 51 319 0.0 0.0 0.00 0.00 0.00 89 1014.2
20191020065621 51 319 0.0 0.0 0.00 0.00 0.00 89 1014.0
20191020065120 51 319 0.0 0.0 0.00 0.00 0.00 89 1014.3
20191020064619 51 319 0.0 0.0 0.00 0.00 0.00 90 1014.3
20191020064113 51 319 0.0 0.0 0.00 0.00 0.00 90 1014.3
20191020063610 51 319 0.0 0.0 0.00 0.00 0.00 90 1014.5
20191020063110 51 319 0.0 0.0 0.00 0.00 0.00 89 1014.6
20191020062610 51 319 0.0 0.0 0.00 0.00 0.00 89 1014.7
20191020062106 51 319 0.0 0.0 0.00 0.00 0.00 89 1014.9
20191020061607 51 319 0.0 0.0 0.00 0.00 0.00 89 1015.0
20191020061107 51 319 0.0 0.0 0.00 0.00 0.00 89 1015.0
20191020060603 50 319 0.0 0.0 0.00 0.00 0.00 89 1015.1
20191020060102 50 319 0.0 0.0 0.00 0.00 0.00 88 1015.2
20191020055600 51 319 0.0 0.0 0.00 0.00 0.00 88 1015.1
20191020055101 51 319 0.0 0.0 0.00 0.00 0.00 88 1015.0
20191020054558 51 319 0.0 0.0 0.00 0.00 0.00 88 1015.0
20191020054057 51 319 0.0 0.0 0.00 0.00 0.00 88 1015.0
20191020053554 51 319 0.0 0.0 0.00 0.00 0.00 87 1015.0
20191020053054 51 319 0.0 0.0 0.00 0.00 0.00 87 1015.0
20191020052549 51 319 0.0 0.0 0.00 0.00 0.00 87 1015.1
20191020052047 51 319 0.0 0.0 0.00 0.00 0.00 87 1015.2
20191020051546 51 319 0.0 0.0 0.00 0.00 0.00 87 1015.2
20191020051047 51 319 0.0 0.0 0.00 0.00 0.00 87 1015.3
20191020050543 51 319 0.0 0.0 0.00 0.00 0.00 87 1015.2
20191020050042 51 319 0.0 0.0 0.00 0.00 0.00 87 1015.2
20191020045541 51 319 0.0 0.0 0.00 0.00 0.00 87 1015.1
20191020045040 51 319 0.0 0.0 0.00 0.00 0.00 87 1015.2
20191020044539 51 319 0.0 0.0 0.00 0.00 0.00 87 1015.3
20191020044036 51 319 0.0 0.0 0.00 0.00 0.00 87 1015.3
20191020043536 51 319 0.0 0.0 0.00 0.00 0.00 87 1015.5
20191020043034 51 319 0.0 0.0 0.00 0.00 0.00 87 1015.5
20191020042534 51 319 0.0 0.0 0.00 0.00 0.00 87 1015.5
20191020042035 50 319 0.0 0.0 0.00 0.00 0.00 87 1015.6
20191020041535 50 319 0.0 0.0 0.00 0.00 0.00 87 1015.5
20191020041037 50 319 0.0 0.0 0.00 0.00 0.00 87 1015.5
20191020040532 50 319 0.0 0.0 0.00 0.00 0.00 87 1015.5
20191020040030 50 319 0.0 0.0 0.00 0.00 0.00 87 1015.6
20191020035529 50 319 0.0 0.0 0.00 0.00 0.00 87 1015.6
20191020035027 50 319 0.0 0.0 0.00 0.00 0.00 88 1015.6
20191020034528 50 319 0.0 0.0 0.00 0.00 0.00 88 1015.6
20191020034024 50 319 0.0 0.0 0.00 0.00 0.00 87 1015.7
20191020033524 50 319 0.0 0.0 0.00 0.00 0.00 87 1015.8
20191020033023 50 319 0.0 0.0 0.00 0.00 0.00 87 1015.7
20191020032520 50 319 0.0 0.0 0.00 0.00 0.00 87 1015.7
20191020032014 50 319 0.0 0.0 0.00 0.00 0.00 87 1015.8
20191020031511 50 319 0.0 0.0 0.00 0.00 0.00 86 1015.9
20191020031009 50 319 0.0 0.0 0.00 0.00 0.00 86 1015.8
20191020030507 50 319 0.0 0.0 0.00 0.00 0.00 86 1015.8
20191020030006 50 319 0.0 0.0 0.00 0.00 0.00 86 1015.7
20191020025507 50 319 0.0 0.0 0.00 0.00 0.00 86 1015.7
20191020025006 50 319 0.0 0.0 0.00 0.00 0.00 85 1015.5
20191020024504 50 319 0.0 0.0 0.00 0.00 0.00 85 1015.6
20191020024003 50 319 0.0 0.0 0.00 0.00 0.00 85 1015.6
20191020023500 51 319 0.0 0.0 0.00 0.00 0.00 85 1015.7
20191020023001 51 319 0.0 0.0 0.00 0.00 0.00 84 1015.6
20191020022459 51 319 0.0 0.0 0.00 0.00 0.00 83 1015.5
20191020022000 51 319 0.0 0.0 0.00 0.00 0.00 83 1015.7
20191020021502 51 319 0.0 0.0 0.00 0.00 0.00 83 1015.7
20191020020958 51 319 0.0 0.0 0.00 0.00 0.00 83 1015.6
20191020020500 51 319 0.0 0.0 0.00 0.00 0.00 83 1015.7
20191020015954 51 319 0.0 0.0 0.00 0.00 0.00 83 1015.7
20191020015450 51 319 0.0 0.0 0.00 0.00 0.00 83 1015.7
20191020014948 51 319 0.0 0.0 0.00 0.00 0.00 83 1015.7
20191020014451 51 319 0.0 0.0 0.00 0.00 0.00 83 1015.7
20191020013950 51 319 0.0 0.0 0.00 0.00 0.00 83 1015.7
20191020013448 51 319 0.0 0.0 0.00 0.00 0.00 83 1015.6
20191020012949 51 319 0.0 0.0 0.00 0.00 0.00 82 1015.6
20191020012448 51 319 0.0 0.0 0.00 0.00 0.00 83 1015.6
20191020011949 51 319 0.0 0.0 0.00 0.00 0.00 83 1015.8
20191020011450 51 319 0.0 0.0 0.00 0.00 0.00 83 1015.8
20191020010949 51 319 0.0 0.0 0.00 0.00 0.00 82 1015.7
20191020010723 51 319 0.0 0.0 0.00 0.00 0.00 82 1015.7
20191020005948 51 319 0.0 0.0 0.00 0.00 0.00 81 1015.7
20191020005449 51 319 0.0 0.0 0.00 0.00 0.00 81 1015.6
20191020004948 51 319 0.0 0.0 0.00 0.00 0.00 81 1015.7
20191020004449 51 319 0.0 0.0 0.00 0.00 0.00 81 1015.8
20191020003949 51 319 0.0 0.0 0.00 0.00 0.00 80 1015.8
20191020003450 52 319 0.0 0.0 0.00 0.00 0.00 80 1015.9
20191020002949 52 319 0.0 0.0 0.00 0.00 0.00 80 1015.9
20191020002448 52 319 0.0 0.0 0.00 0.00 0.00 79 1015.9
20191020001945 52 319 0.0 0.0 0.00 0.00 0.00 79 1015.9
20191020001444 52 319 0.0 0.0 0.00 0.00 0.00 78 1015.9
20191020000944 52 319 0.0 0.0 0.00 0.00 0.00 78 1015.9
20191020000446 52 319 0.0 0.0 0.00 0.00 0.00 77 1015.9
20191019235939 53 319 0.0 0.0 0.00 0.00 0.00 77 1015.9
20191019235439 53 319 0.0 0.0 0.00 0.00 0.00 77 1015.9
20191019234938 53 319 0.0 0.0 0.00 0.00 0.00 76 1016.0
20191019234440 53 319 0.0 0.0 0.00 0.00 0.00 75 1016.0
20191019233940 53 319 0.0 0.0 0.00 0.00 0.00 75 1016.0
20191019233438 53 319 0.0 0.0 0.00 0.00 0.00 75 1016.0
20191019232939 54 319 0.0 0.0 0.00 0.00 0.00 74 1016.0
20191019232436 54 319 0.0 0.0 0.00 0.00 0.00 74 1015.8
20191019231934 54 319 0.0 0.0 0.00 0.00 0.00 73 1015.8
20191019231435 54 319 0.0 0.0 0.00 0.00 0.00 73 1015.8
20191019230933 55 319 0.0 0.0 0.00 0.00 0.00 73 1015.8
20191019230433 55 319 0.0 0.0 0.00 0.00 0.00 72 1015.8
20191019225930 55 319 0.0 0.0 0.00 0.00 0.00 71 1015.8
20191019225432 55 319 0.0 0.0 0.00 0.00 0.00 70 1015.7
20191019224930 56 319 0.0 0.0 0.00 0.00 0.00 70 1015.7
20191019224430 56 319 0.0 0.0 0.00 0.00 0.00 69 1015.6